createdAt,value
2023-05-14T00:02:03.389Z,9.32
2023-05-14T00:04:30.662Z,8.75
2023-05-14T00:06:58.869Z,9.40
2023-05-14T00:09:25.872Z,9.13
2023-05-14T00:11:53.233Z,8.50
2023-05-14T00:14:21.067Z,9.70
2023-05-14T00:16:48.455Z,8.20
2023-05-14T00:19:15.692Z,9.68
2023-05-14T00:21:43.133Z,9.02
2023-05-14T00:24:10.202Z,8.10
2023-05-14T00:26:37.490Z,9.95
2023-05-14T00:29:04.894Z,8.63
2023-05-14T00:31:32.307Z,9.43
2023-05-14T00:33:59.425Z,9.07
2023-05-14T00:36:26.765Z,9.32
2023-05-14T00:38:53.869Z,10.07
2023-05-14T00:41:21.842Z,8.20
2023-05-14T00:43:48.825Z,9.50
2023-05-14T00:46:18.138Z,8.40
2023-05-14T00:48:46.740Z,8.35
2023-05-14T00:51:19.999Z,8.23
2023-05-14T00:53:47.688Z,9.00
2023-05-14T00:56:16.643Z,9.98
2023-05-14T00:58:43.832Z,10.20
2023-05-14T01:01:12.341Z,9.00
2023-05-14T01:03:39.620Z,9.88
2023-05-14T01:06:16.079Z,9.60
2023-05-14T01:09:14.055Z,9.30
2023-05-14T01:11:55.713Z,10.45
2023-05-14T01:14:33.186Z,9.13
2023-05-14T01:17:04.266Z,8.85
2023-05-14T01:19:34.589Z,9.50
2023-05-14T01:22:01.894Z,8.55
2023-05-14T01:24:29.131Z,8.63
2023-05-14T01:27:03.907Z,9.05
2023-05-14T01:29:32.735Z,8.35
2023-05-14T01:32:01.177Z,8.30
2023-05-14T01:34:31.422Z,8.25
2023-05-14T01:37:00.549Z,7.35
2023-05-14T01:39:28.286Z,8.27
2023-05-14T01:41:56.463Z,8.32
2023-05-14T01:44:24.111Z,9.27
2023-05-14T01:46:51.399Z,9.20
2023-05-14T01:49:19.706Z,9.82
2023-05-14T01:51:48.422Z,9.73
2023-05-14T01:54:15.556Z,9.75
2023-05-14T01:56:42.878Z,10.05
2023-05-14T01:59:10.341Z,9.75
2023-05-14T02:01:43.818Z,9.98
2023-05-14T02:04:11.081Z,10.13
2023-05-14T02:09:07.219Z,9.98
2023-05-14T02:11:34.605Z,9.35
2023-05-14T02:14:01.621Z,10.20
2023-05-14T02:16:29.748Z,9.68
2023-05-14T02:18:59.649Z,10.00
2023-05-14T02:21:50.740Z,10.38
2023-05-14T02:24:17.862Z,9.80
2023-05-14T02:26:45.336Z,9.30
2023-05-14T02:29:12.773Z,9.40
2023-05-14T02:31:41.924Z,11.45
2023-05-14T02:34:09.476Z,9.68
2023-05-14T02:36:36.855Z,10.18
2023-05-14T02:39:08.062Z,10.40
2023-05-14T02:41:38.712Z,11.23
2023-05-14T02:44:05.940Z,10.95
2023-05-14T02:46:33.654Z,9.52
2023-05-14T02:49:00.811Z,10.45
2023-05-14T02:51:29.553Z,10.07
2023-05-14T02:53:56.800Z,10.10
2023-05-14T02:56:24.199Z,10.45
2023-05-14T02:58:51.341Z,11.02
2023-05-14T03:01:19.104Z,10.13
2023-05-14T03:03:47.145Z,11.63
2023-05-14T03:06:14.603Z,11.05
2023-05-14T03:08:43.144Z,10.63
2023-05-14T03:11:11.508Z,10.43
2023-05-14T03:13:38.480Z,10.63
2023-05-14T03:16:06.032Z,10.50
2023-05-14T03:18:34.865Z,10.85
2023-05-14T03:21:03.964Z,10.48
2023-05-14T03:23:35.118Z,10.13
2023-05-14T03:26:02.571Z,10.43
2023-05-14T03:28:29.756Z,10.75
2023-05-14T03:30:57.720Z,9.85
2023-05-14T03:33:26.889Z,11.45
2023-05-14T03:35:54.235Z,10.48
2023-05-14T03:38:23.280Z,10.23
2023-05-14T03:40:50.694Z,9.63
2023-05-14T03:43:18.054Z,9.38
2023-05-14T03:45:45.627Z,10.68
2023-05-14T03:48:13.015Z,12.23
2023-05-14T03:50:40.636Z,11.25
2023-05-14T03:53:12.180Z,9.88
2023-05-14T03:55:42.572Z,8.82
2023-05-14T03:58:14.339Z,9.23
2023-05-14T04:00:44.317Z,9.50
2023-05-14T04:03:13.881Z,10.27
2023-05-14T04:05:41.596Z,9.35
2023-05-14T04:08:08.753Z,9.55
2023-05-14T04:10:36.238Z,9.85
2023-05-14T04:13:05.590Z,9.68
2023-05-14T04:15:35.870Z,10.25
2023-05-14T04:18:09.476Z,10.52
2023-05-14T04:20:37.232Z,10.25
2023-05-14T04:23:05.480Z,10.40
2023-05-14T04:28:01.619Z,9.43
2023-05-14T04:30:31.165Z,9.20
2023-05-14T04:32:58.350Z,9.57
2023-05-14T04:35:25.844Z,9.52
2023-05-14T04:37:52.951Z,9.35
2023-05-14T04:40:20.489Z,8.88
2023-05-14T04:42:47.606Z,9.73
2023-05-14T04:48:08.055Z,9.45
2023-05-14T04:50:39.216Z,9.73
2023-05-14T04:53:06.467Z,9.52
2023-05-14T04:55:34.679Z,10.20
2023-05-14T04:58:01.980Z,9.88
2023-05-14T05:00:30.979Z,9.45
2023-05-14T05:03:28.532Z,9.40
2023-05-14T05:05:59.780Z,10.18
2023-05-14T05:08:26.987Z,9.65
2023-05-14T05:11:00.704Z,8.98
2023-05-14T05:16:32.954Z,9.35
2023-05-14T05:19:00.436Z,8.95
2023-05-14T05:21:28.551Z,9.77
2023-05-14T05:23:58.153Z,9.63
2023-05-14T05:26:28.279Z,9.15
2023-05-14T05:28:57.462Z,10.65
2023-05-14T05:31:26.292Z,8.05
2023-05-14T05:33:53.859Z,8.98
2023-05-14T05:36:21.604Z,8.50
2023-05-14T05:38:49.257Z,8.48
2023-05-14T05:53:11.621Z,7.03
2023-05-14T05:55:47.016Z,6.20
2023-05-14T05:58:22.723Z,7.90
2023-05-14T06:00:50.384Z,7.72
2023-05-14T06:03:19.062Z,6.60
2023-05-14T06:05:50.490Z,6.65
2023-05-14T06:08:19.473Z,6.63
2023-05-14T06:11:02.474Z,5.80
2023-05-14T06:19:18.707Z,5.78
2023-05-14T06:21:48.277Z,6.70
2023-05-14T06:24:17.723Z,6.07
2023-05-14T06:26:47.167Z,5.63
2023-05-14T06:32:11.003Z,5.10
2023-05-14T06:34:41.065Z,5.18
2023-05-14T06:39:52.414Z,4.72
2023-05-14T06:42:19.978Z,4.28
2023-05-14T06:44:47.348Z,4.93
2023-05-14T06:47:27.673Z,4.07
2023-05-14T06:49:59.387Z,3.97
2023-05-14T06:52:26.972Z,4.63
2023-05-14T06:54:54.307Z,4.30
2023-05-14T06:57:22.328Z,4.05
2023-05-14T06:59:54.248Z,5.00
2023-05-14T07:02:25.527Z,4.10
2023-05-14T07:04:52.893Z,4.13
2023-05-14T07:10:02.361Z,4.70
2023-05-14T07:12:32.800Z,4.95
2023-05-14T07:15:02.107Z,4.07
2023-05-14T07:17:30.251Z,4.20
2023-05-14T07:19:57.559Z,4.38
2023-05-14T07:22:25.606Z,3.97
2023-05-14T07:25:10.562Z,4.38
2023-05-14T07:30:20.582Z,4.75
2023-05-14T07:32:51.062Z,4.13
2023-05-14T07:35:18.953Z,3.60
2023-05-14T07:37:50.076Z,3.38
2023-05-14T07:40:17.257Z,3.47
2023-05-14T07:42:44.752Z,3.67
2023-05-14T07:45:12.293Z,4.15
2023-05-14T07:47:47.471Z,3.35
2023-05-14T07:50:19.882Z,4.00
2023-05-14T07:52:48.674Z,3.78
2023-05-14T07:55:20.432Z,3.80
2023-05-14T07:57:48.842Z,3.92
2023-05-14T08:00:19.319Z,3.20
2023-05-14T08:02:52.124Z,3.78
2023-05-14T08:05:19.636Z,3.13
2023-05-14T08:07:47.519Z,3.75
2023-05-14T08:10:14.682Z,4.43
2023-05-14T08:12:42.923Z,3.42
2023-05-14T08:15:10.636Z,4.00
2023-05-14T08:17:44.765Z,2.97
2023-05-14T08:20:14.703Z,3.33
2023-05-14T08:22:42.218Z,3.45
2023-05-14T08:25:09.481Z,3.45
2023-05-14T08:27:39.040Z,3.13
2023-05-14T08:30:06.870Z,3.35
2023-05-14T08:35:02.840Z,4.25
2023-05-14T08:37:30.538Z,4.35
2023-05-14T08:39:57.571Z,4.72
2023-05-14T08:42:26.011Z,4.68
2023-05-14T08:45:04.001Z,3.97
2023-05-14T08:47:32.070Z,4.07
2023-05-14T08:50:04.716Z,5.10
2023-05-14T08:52:36.490Z,4.28
2023-05-14T08:55:13.597Z,4.20
2023-05-14T08:57:41.447Z,4.65
2023-05-14T09:00:12.136Z,4.70
2023-05-14T09:02:40.953Z,4.88
2023-05-14T09:05:18.086Z,4.43
2023-05-14T09:07:45.950Z,4.68
2023-05-14T09:10:16.935Z,3.78
2023-05-14T09:12:44.913Z,4.80
2023-05-14T09:15:12.514Z,3.78
2023-05-14T09:17:44.139Z,4.88
2023-05-14T09:20:18.267Z,4.53
2023-05-14T09:25:30.146Z,4.22
2023-05-14T09:28:04.240Z,3.40
2023-05-14T09:30:32.541Z,4.18
2023-05-14T09:33:01.756Z,3.90
2023-05-14T09:35:29.200Z,4.45
2023-05-14T09:37:59.524Z,4.03
2023-05-14T09:40:29.062Z,4.20
2023-05-14T09:43:01.116Z,4.22
2023-05-14T09:45:33.724Z,4.63
2023-05-14T09:48:11.853Z,2.65
2023-05-14T09:53:30.338Z,4.20
2023-05-14T09:59:29.202Z,3.58
2023-05-14T10:02:30.604Z,3.55
2023-05-14T10:05:02.675Z,3.60
2023-05-14T10:07:35.546Z,3.50
2023-05-14T10:10:07.133Z,3.50
2023-05-14T10:12:42.040Z,4.13
2023-05-14T10:15:34.853Z,3.60
2023-05-14T10:24:00.900Z,2.88
2023-05-14T10:32:43.139Z,2.42
2023-05-14T10:35:22.185Z,3.33
2023-05-14T10:41:21.646Z,3.20
2023-05-14T10:43:52.594Z,3.63
2023-05-14T10:49:42.414Z,3.92
2023-05-14T10:52:13.610Z,3.35
2023-05-14T10:54:53.429Z,3.53
2023-05-14T10:57:24.832Z,3.05
2023-05-14T11:00:02.396Z,3.22
2023-05-14T11:02:34.178Z,2.42
2023-05-14T11:05:08.370Z,3.67
2023-05-14T11:10:09.166Z,3.38
2023-05-14T11:12:41.885Z,3.05
2023-05-14T11:15:11.423Z,3.28
2023-05-14T11:17:42.345Z,2.50
2023-05-14T11:20:30.496Z,2.67
2023-05-14T11:22:58.474Z,2.67
2023-05-14T11:25:26.097Z,2.90
2023-05-14T11:28:01.529Z,2.78
2023-05-14T11:32:59.319Z,2.35
2023-05-14T11:35:35.647Z,2.60
2023-05-14T11:38:03.346Z,3.35
2023-05-14T11:43:39.767Z,2.50
2023-05-14T11:46:07.243Z,2.40
2023-05-14T11:48:36.134Z,2.40
2023-05-14T11:51:05.030Z,3.05
2023-05-14T11:53:33.530Z,3.05
2023-05-14T11:56:05.680Z,3.00
2023-05-14T11:58:45.844Z,2.35
2023-05-14T12:01:16.454Z,2.75
2023-05-14T12:03:46.027Z,2.60
2023-05-14T12:06:24.002Z,3.05
2023-05-14T12:08:53.013Z,3.00
2023-05-14T12:11:22.030Z,2.90
2023-05-14T12:13:49.528Z,2.80
2023-05-14T12:16:19.156Z,3.08
2023-05-14T12:18:47.245Z,2.95
2023-05-14T12:21:14.981Z,2.42
2023-05-14T12:23:42.666Z,2.30
2023-05-14T12:26:10.541Z,2.50
2023-05-14T12:28:43.644Z,3.08
2023-05-14T12:31:11.073Z,2.58
2023-05-14T12:33:38.575Z,2.63
2023-05-14T12:36:20.731Z,2.65
2023-05-14T12:39:10.422Z,2.85
2023-05-14T12:41:37.661Z,2.80
2023-05-14T12:44:05.576Z,2.63
2023-05-14T12:46:34.551Z,2.40
2023-05-14T12:49:16.544Z,2.88
2023-05-14T12:55:22.612Z,2.45
2023-05-14T12:57:49.953Z,2.38
2023-05-14T13:00:18.695Z,2.22
2023-05-14T13:02:47.165Z,2.25
2023-05-14T13:05:14.955Z,3.05
2023-05-14T13:07:46.172Z,2.17
2023-05-14T13:10:14.206Z,2.15
2023-05-14T13:12:44.545Z,2.60
2023-05-14T13:17:42.123Z,2.65
2023-05-14T13:20:17.782Z,3.22
2023-05-14T13:22:46.144Z,2.50
2023-05-14T13:25:17.320Z,3.50
2023-05-14T13:27:47.806Z,2.35
2023-05-14T13:30:15.983Z,2.38
2023-05-14T13:32:43.205Z,1.92
2023-05-14T13:37:59.825Z,2.00
2023-05-14T13:52:26.763Z,2.80
2023-05-14T13:57:40.325Z,2.00
2023-05-14T14:00:22.399Z,2.30
2023-05-14T14:08:38.858Z,2.70
2023-05-14T14:11:06.445Z,2.60
2023-05-14T14:52:49.494Z,2.75
2023-05-14T15:14:13.412Z,2.60
2023-05-14T15:16:45.016Z,2.08
2023-05-14T15:22:24.919Z,2.55
2023-05-14T15:24:53.127Z,2.63
2023-05-14T15:27:40.991Z,2.17
2023-05-14T15:30:08.582Z,2.53
2023-05-14T15:32:36.266Z,2.30
2023-05-14T15:38:07.768Z,2.55
2023-05-14T15:46:43.325Z,2.15
2023-05-14T16:26:03.557Z,2.67
2023-05-14T16:28:34.307Z,2.83
2023-05-14T16:33:48.669Z,2.80
2023-05-14T16:39:16.468Z,3.00
2023-05-14T16:47:51.037Z,2.72
2023-05-14T16:58:37.171Z,3.20
2023-05-14T17:01:10.182Z,3.55
2023-05-14T17:03:39.037Z,3.78
2023-05-14T17:06:51.667Z,3.60
2023-05-14T17:21:59.502Z,3.80
2023-05-14T17:33:54.729Z,3.72
2023-05-14T17:36:45.344Z,4.05
2023-05-14T17:42:08.554Z,2.95
2023-05-14T17:47:35.921Z,3.33
2023-05-14T17:53:29.307Z,3.15
2023-05-14T17:55:59.722Z,3.17
2023-05-14T17:58:30.028Z,3.50
2023-05-14T18:01:01.505Z,3.83
2023-05-14T18:03:29.516Z,3.45
2023-05-14T18:05:58.606Z,3.70
2023-05-14T18:08:26.955Z,3.78
2023-05-14T18:11:04.631Z,3.55
2023-05-14T18:13:32.803Z,3.20
2023-05-14T18:16:02.453Z,3.00
2023-05-14T18:21:30.271Z,2.80
2023-05-14T18:26:57.751Z,2.50
2023-05-14T18:29:25.014Z,2.92
2023-05-14T18:37:17.281Z,2.92
2023-05-14T18:39:56.315Z,2.60
2023-05-14T18:45:25.732Z,3.75
2023-05-14T18:48:04.582Z,3.17
2023-05-14T19:05:31.476Z,3.35
2023-05-14T19:08:16.606Z,3.10
2023-05-14T19:10:45.053Z,3.50
2023-05-14T19:16:06.184Z,3.67
2023-05-14T19:18:34.814Z,3.78
2023-05-14T19:21:02.032Z,3.70
2023-05-14T19:23:40.800Z,3.63
2023-05-14T19:26:32.368Z,3.33
2023-05-14T19:34:27.674Z,4.28
2023-05-14T19:39:37.238Z,4.72
2023-05-14T19:42:05.008Z,3.45
2023-05-14T19:44:43.715Z,3.45
2023-05-14T19:47:16.752Z,3.38
2023-05-14T19:49:44.453Z,3.22
2023-05-14T19:52:37.400Z,3.17
2023-05-14T19:55:05.916Z,3.30
2023-05-14T20:00:32.066Z,4.25
2023-05-14T20:03:01.304Z,3.70
2023-05-14T20:05:28.498Z,3.58
2023-05-14T20:07:56.117Z,4.00
2023-05-14T20:10:24.315Z,3.90
2023-05-14T20:12:51.814Z,4.40
2023-05-14T20:15:19.102Z,4.32
2023-05-14T20:17:46.660Z,4.40
2023-05-14T20:20:14.252Z,6.75
2023-05-14T20:22:42.970Z,4.20
2023-05-14T20:25:10.353Z,4.38
2023-05-14T20:27:37.992Z,3.85
2023-05-14T20:30:05.990Z,4.00
2023-05-14T20:32:33.792Z,3.50
2023-05-14T20:35:02.338Z,4.38
2023-05-14T20:37:32.525Z,4.82
2023-05-14T20:40:01.306Z,5.05
2023-05-14T20:42:29.057Z,4.68
2023-05-14T20:44:56.382Z,4.07
2023-05-14T20:47:26.862Z,4.25
2023-05-14T20:49:54.142Z,4.18
2023-05-14T20:58:03.667Z,3.92
